Time;durP1;ratioP1;P1;durP2;ratioP2;P2;SDS_P1;SDS_P2;PMS_P1;PMS_P2;Temp;Humidity;BMP_temperature;BMP_pressure;BME280_temperature;BME280_humidity;BME280_pressure;Samples;Min_cycle;Max_cycle;Signal;HPM_P1;HPM_P2
2022/01/14 00:02:08;;;;;;;20.23;11.60;;;6.90;99.90;;;;;;5027965;28;20044;-78
2022/01/14 00:04:34;;;;;;;17.75;10.88;;;7.00;99.90;;;;;;5027466;28;20053;-79
2022/01/14 00:07:00;;;;;;;16.20;12.07;;;7.00;99.90;;;;;;5029948;28;20771;-80
2022/01/14 00:09:26;;;;;;;17.80;11.18;;;7.00;99.90;;;;;;5030340;28;20059;-79
2022/01/14 00:11:56;;;;;;;17.00;10.57;;;7.00;99.90;;;;;;5033848;28;20695;-78
2022/01/14 00:14:36;;;;;;;26.02;12.40;;;6.90;99.90;;;;;;5067266;28;20037;-78
2022/01/14 00:17:06;;;;;;;27.83;11.02;;;7.00;99.90;;;;;;5030780;28;20064;-79
2022/01/14 00:19:32;;;;;;;19.10;10.80;;;7.00;99.90;;;;;;5065751;28;20069;-78
2022/01/14 00:22:01;;;;;;;18.48;11.40;;;7.00;99.90;;;;;;5032860;28;20808;-77
2022/01/14 00:31:37;;;;;;;18.17;10.20;;;6.90;99.90;;;;;;5064582;28;20102;-79
2022/01/14 00:32:57;;;;;;;16.00;10.30;;;6.90;99.90;;;;;;5035615;28;20048;-79
2022/01/14 00:35:22;;;;;;;17.13;10.00;;;7.00;99.90;;;;;;5027555;28;21030;-79
2022/01/14 00:37:48;;;;;;;15.93;9.98;;;6.90;99.90;;;;;;5033174;28;20036;-78
2022/01/14 00:40:14;;;;;;;23.58;10.23;;;6.90;99.90;;;;;;5035436;28;20519;-79
2022/01/14 00:42:40;;;;;;;20.25;10.60;;;6.90;99.90;;;;;;5031891;28;20817;-77
2022/01/14 00:45:07;;;;;;;15.27;11.10;;;6.90;99.90;;;;;;5034396;28;20080;-78
2022/01/14 00:47:34;;;;;;;20.40;11.50;;;7.00;99.90;;;;;;5033843;28;20041;-78
2022/01/14 00:50:00;;;;;;;19.35;11.52;;;7.00;99.90;;;;;;5034528;28;20037;-78
2022/01/14 00:52:26;;;;;;;12.75;9.98;;;7.00;99.90;;;;;;5032567;28;20701;-78
2022/01/14 00:54:51;;;;;;;16.77;10.90;;;7.00;99.90;;;;;;5035098;28;20071;-79
2022/01/14 00:57:28;;;;;;;23.33;12.80;;;6.90;99.90;;;;;;5033419;28;20057;-79
2022/01/14 00:59:54;;;;;;;16.17;9.90;;;7.00;99.90;;;;;;5030884;28;20041;-79
2022/01/14 01:02:20;;;;;;;18.10;11.30;;;7.00;99.90;;;;;;5021236;28;20041;-79
2022/01/14 01:04:45;;;;;;;19.95;11.30;;;6.90;99.90;;;;;;5059278;28;20100;-79
2022/01/14 01:07:12;;;;;;;17.88;9.98;;;7.00;99.90;;;;;;5031975;28;20049;-79
2022/01/14 01:09:41;;;;;;;16.75;11.05;;;7.00;99.90;;;;;;5028102;28;20072;-79
2022/01/14 01:17:07;;;;;;;23.63;10.07;;;7.00;99.90;;;;;;5029500;28;20571;-78
2022/01/14 01:19:34;;;;;;;17.92;9.98;;;7.00;99.90;;;;;;5034485;28;20582;-78
2022/01/14 01:22:00;;;;;;;16.77;10.30;;;7.00;99.90;;;;;;5032247;28;20049;-78
2022/01/14 01:24:25;;;;;;;18.83;10.32;;;7.00;99.90;;;;;;5067483;28;20051;-79
2022/01/14 01:26:52;;;;;;;19.13;9.98;;;7.00;99.90;;;;;;5034329;28;20045;-78
2022/01/14 01:31:49;;;;;;;21.58;10.40;;;6.90;99.90;;;;;;5037341;28;20786;-79
2022/01/14 01:34:18;;;;;;;20.50;11.45;;;6.90;99.90;;;;;;5031108;28;20107;-78
2022/01/14 01:36:46;;;;;;;19.60;11.23;;;6.90;99.90;;;;;;5029273;28;20048;-78
2022/01/14 01:39:15;;;;;;;16.83;10.23;;;6.90;99.90;;;;;;5030042;28;20057;-79
2022/01/14 01:41:46;;;;;;;17.73;10.85;;;6.90;99.90;;;;;;5027932;28;20048;-79
2022/01/14 01:44:14;;;;;;;14.23;10.15;;;6.90;99.90;;;;;;5034335;28;20053;-79
2022/01/14 01:46:43;;;;;;;19.00;10.27;;;6.90;99.90;;;;;;5034671;28;20049;-78
2022/01/14 01:49:10;;;;;;;17.63;10.50;;;6.80;99.90;;;;;;5033042;28;20048;-79
2022/01/14 01:51:36;;;;;;;18.58;11.15;;;6.80;99.90;;;;;;5030182;28;20434;-78
2022/01/14 01:54:03;;;;;;;14.93;10.13;;;6.80;99.90;;;;;;5027250;28;20741;-79
2022/01/14 01:56:29;;;;;;;18.48;11.05;;;6.80;99.90;;;;;;5029569;28;20091;-78
2022/01/14 01:58:58;;;;;;;17.52;11.05;;;6.90;99.90;;;;;;5029731;28;20152;-78
2022/01/14 02:01:25;;;;;;;17.58;10.32;;;6.90;99.90;;;;;;5029686;28;20495;-79
2022/01/14 02:03:53;;;;;;;15.35;10.98;;;6.90;99.90;;;;;;5024869;28;20567;-79
2022/01/14 02:06:20;;;;;;;18.30;10.48;;;6.90;99.90;;;;;;5029538;28;20083;-79
2022/01/14 02:08:46;;;;;;;17.67;11.13;;;6.90;99.90;;;;;;5031385;28;20052;-77
2022/01/14 02:11:11;;;;;;;18.17;11.52;;;6.90;99.90;;;;;;5031299;28;20138;-79
2022/01/14 02:13:37;;;;;;;14.38;9.70;;;6.90;99.90;;;;;;5030105;28;20555;-79
2022/01/14 02:18:46;;;;;;;21.35;10.48;;;7.00;99.90;;;;;;5033632;28;20798;-79
2022/01/14 02:26:51;;;;;;;18.65;10.55;;;6.90;99.90;;;;;;5066243;28;20056;-79
2022/01/14 02:29:18;;;;;;;19.00;11.98;;;7.00;99.90;;;;;;5032984;28;20653;-79
2022/01/14 02:31:44;;;;;;;21.38;12.43;;;7.00;99.90;;;;;;5032862;28;20056;-79
2022/01/14 02:34:11;;;;;;;17.35;11.70;;;7.00;99.90;;;;;;5026707;28;20712;-78
2022/01/14 02:36:40;;;;;;;17.33;11.27;;;7.00;99.90;;;;;;5032426;28;20047;-79
2022/01/14 02:39:07;;;;;;;23.00;10.57;;;6.90;99.90;;;;;;5029058;28;20048;-78
2022/01/14 02:41:37;;;;;;;16.63;11.55;;;7.00;99.90;;;;;;5032171;28;20175;-79
2022/01/14 02:44:09;;;;;;;21.45;11.77;;;7.00;99.90;;;;;;5062671;28;20139;-78
2022/01/14 02:46:42;;;;;;;19.08;11.65;;;7.00;99.90;;;;;;5028982;28;20092;-79
2022/01/14 02:49:08;;;;;;;16.17;12.23;;;7.00;99.90;;;;;;5030051;28;20147;-79
2022/01/14 02:51:34;;;;;;;21.40;11.05;;;7.00;99.90;;;;;;5033198;28;20438;-78
2022/01/14 02:54:15;;;;;;;17.13;11.88;;;7.00;99.90;;;;;;5031907;28;20037;-77
2022/01/14 02:56:47;;;;;;;19.85;10.52;;;7.00;99.90;;;;;;5029449;28;20404;-78
2022/01/14 02:59:13;;;;;;;17.42;10.57;;;7.00;99.90;;;;;;5030911;28;21014;-77
2022/01/14 03:01:40;;;;;;;19.67;11.23;;;7.00;99.90;;;;;;5031836;28;20049;-77
2022/01/14 03:04:07;;;;;;;21.33;11.18;;;7.10;99.90;;;;;;5022956;28;20061;-78
2022/01/14 03:06:34;;;;;;;16.55;10.40;;;7.10;99.90;;;;;;5029812;28;20045;-78
2022/01/14 03:09:00;;;;;;;16.30;11.00;;;7.10;99.90;;;;;;5031500;28;20043;-78
2022/01/14 03:11:32;;;;;;;20.35;10.90;;;7.10;99.90;;;;;;5033057;28;20120;-78
2022/01/14 03:13:59;;;;;;;18.38;10.38;;;7.10;99.90;;;;;;5031455;28;20049;-78
2022/01/14 03:16:24;;;;;;;19.17;11.93;;;7.10;99.90;;;;;;5031928;28;20052;-78
2022/01/14 03:18:53;;;;;;;21.95;11.10;;;7.10;99.90;;;;;;5030905;28;20045;-79
2022/01/14 03:21:28;;;;;;;20.65;12.45;;;7.10;99.90;;;;;;5032972;28;20514;-77
2022/01/14 03:24:04;;;;;;;16.85;10.93;;;7.10;99.90;;;;;;5033518;28;20075;-78
2022/01/14 03:26:30;;;;;;;23.17;11.82;;;7.20;99.90;;;;;;5033305;28;20049;-78
2022/01/14 03:28:55;;;;;;;19.23;12.90;;;7.20;99.90;;;;;;5033962;28;20053;-78
2022/01/14 03:31:21;;;;;;;22.42;12.02;;;7.20;99.90;;;;;;5033011;28;20044;-78
2022/01/14 03:33:47;;;;;;;20.23;11.85;;;7.20;99.90;;;;;;5033169;28;20048;-78
2022/01/14 03:36:13;;;;;;;17.48;12.20;;;7.20;99.90;;;;;;5034722;28;20083;-78
2022/01/14 03:38:39;;;;;;;14.60;10.65;;;7.20;99.90;;;;;;5033507;28;20431;-78
2022/01/14 03:41:06;;;;;;;22.83;11.43;;;7.20;99.90;;;;;;5032932;28;20866;-78
2022/01/14 03:43:32;;;;;;;18.38;11.57;;;7.20;99.90;;;;;;5037838;28;20813;-78
2022/01/14 03:45:58;;;;;;;28.20;13.30;;;7.20;99.90;;;;;;5038110;28;20582;-78
2022/01/14 03:48:23;;;;;;;22.60;12.35;;;7.20;99.90;;;;;;5038544;28;20048;-78
2022/01/14 03:50:49;;;;;;;19.48;11.88;;;7.20;99.90;;;;;;5037855;28;20614;-78
2022/01/14 03:53:15;;;;;;;17.50;10.48;;;7.20;99.90;;;;;;5038180;28;20056;-78
2022/01/14 03:55:42;;;;;;;16.30;11.13;;;7.20;99.90;;;;;;5038610;28;20130;-78
2022/01/14 03:58:09;;;;;;;16.45;11.27;;;7.20;99.90;;;;;;5038552;28;20057;-78
2022/01/14 04:00:35;;;;;;;19.60;12.35;;;7.20;99.90;;;;;;5039132;28;20051;-78
2022/01/14 04:03:01;;;;;;;17.33;11.63;;;7.20;99.90;;;;;;5037007;28;20049;-78
2022/01/14 04:05:26;;;;;;;20.17;12.32;;;7.30;99.90;;;;;;5037002;28;20832;-78
2022/01/14 04:07:52;;;;;;;18.98;11.25;;;7.30;99.90;;;;;;5037386;28;20048;-78
2022/01/14 04:10:18;;;;;;;24.13;11.63;;;7.30;99.90;;;;;;5038252;28;20046;-78
2022/01/14 04:18:01;;;;;;;21.10;12.40;;;7.30;99.90;;;;;;5038268;28;20558;-78
2022/01/14 04:20:28;;;;;;;18.63;12.23;;;7.30;99.90;;;;;;5038578;28;20088;-78
2022/01/14 04:22:53;;;;;;;20.40;12.43;;;7.30;99.90;;;;;;5038499;28;20063;-78
2022/01/14 04:25:19;;;;;;;23.25;12.27;;;7.30;99.90;;;;;;5038413;28;20057;-78
2022/01/14 04:27:45;;;;;;;21.00;13.55;;;7.30;99.90;;;;;;5036998;28;20858;-79
2022/01/14 04:30:12;;;;;;;14.32;10.82;;;7.30;99.90;;;;;;5037474;28;20225;-78
2022/01/14 04:32:37;;;;;;;26.23;13.52;;;7.30;99.90;;;;;;5038281;28;20150;-78
2022/01/14 04:35:03;;;;;;;19.15;11.57;;;7.30;99.90;;;;;;5036100;28;20139;-78
2022/01/14 04:37:29;;;;;;;15.07;11.52;;;7.30;99.90;;;;;;5037406;28;20056;-78
2022/01/14 04:39:54;;;;;;;22.00;12.85;;;7.20;99.90;;;;;;5037087;28;20049;-78
2022/01/14 04:42:20;;;;;;;19.02;12.25;;;7.20;99.90;;;;;;5036582;28;20056;-78
2022/01/14 04:44:46;;;;;;;20.35;11.88;;;7.20;99.90;;;;;;5037037;28;20769;-78
2022/01/14 04:47:29;;;;;;;17.27;11.32;;;7.10;99.90;;;;;;5036580;28;20052;-78
2022/01/14 04:49:55;;;;;;;22.30;12.10;;;7.10;99.90;;;;;;5036416;28;20053;-78
2022/01/14 04:52:21;;;;;;;18.55;12.52;;;7.00;99.90;;;;;;5036705;28;20060;-79
2022/01/14 04:54:46;;;;;;;18.33;11.82;;;7.00;99.90;;;;;;5036120;28;20052;-78
2022/01/14 04:57:15;;;;;;;17.75;11.43;;;7.00;99.90;;;;;;5035164;28;20045;-78
2022/01/14 04:59:41;;;;;;;21.50;11.88;;;7.00;99.90;;;;;;5035706;28;20052;-78
2022/01/14 05:02:07;;;;;;;16.33;11.52;;;7.00;99.90;;;;;;5036171;28;20044;-78
2022/01/14 05:04:32;;;;;;;18.35;12.57;;;7.00;99.90;;;;;;5036889;28;20614;-78
2022/01/14 05:07:02;;;;;;;26.95;13.40;;;7.00;99.90;;;;;;5037816;28;20745;-77
2022/01/14 05:09:35;;;;;;;27.50;13.45;;;7.00;99.90;;;;;;5040416;28;20053;-78
2022/01/14 05:12:07;;;;;;;23.40;13.00;;;6.90;99.90;;;;;;5037525;28;20829;-77
2022/01/14 05:14:33;;;;;;;19.50;13.02;;;6.80;99.90;;;;;;5039592;28;20049;-78
2022/01/14 05:16:58;;;;;;;25.00;13.70;;;6.90;99.90;;;;;;5038661;28;20053;-78
2022/01/14 05:19:24;;;;;;;24.77;14.05;;;6.80;99.90;;;;;;5039576;28;20059;-78
2022/01/14 05:21:49;;;;;;;19.35;13.40;;;6.80;99.90;;;;;;5037846;28;20060;-77
2022/01/14 05:24:15;;;;;;;17.40;13.32;;;6.80;99.90;;;;;;5037594;28;20527;-78
2022/01/14 05:26:41;;;;;;;19.70;12.05;;;6.80;99.90;;;;;;5036723;28;20041;-78
2022/01/14 05:29:06;;;;;;;21.23;13.43;;;6.80;99.90;;;;;;5035916;28;20528;-78
2022/01/14 05:31:47;;;;;;;21.70;13.00;;;6.70;99.90;;;;;;5035851;28;20590;-77
2022/01/14 05:34:13;;;;;;;22.35;12.50;;;6.80;99.90;;;;;;5036392;28;20139;-78
2022/01/14 05:36:39;;;;;;;22.38;12.80;;;6.80;99.90;;;;;;5036848;28;20052;-78
2022/01/14 05:39:05;;;;;;;20.63;13.40;;;6.80;99.90;;;;;;5035918;28;20040;-78
2022/01/14 05:41:31;;;;;;;21.92;13.20;;;6.80;99.90;;;;;;5036455;28;20060;-77
2022/01/14 05:43:57;;;;;;;16.95;12.52;;;6.80;99.90;;;;;;5035208;28;20059;-78
2022/01/14 05:46:22;;;;;;;18.15;13.43;;;6.80;99.90;;;;;;5036566;28;20097;-78
2022/01/14 05:48:48;;;;;;;23.00;14.45;;;6.90;99.90;;;;;;5034811;28;20054;-77
2022/01/14 05:51:14;;;;;;;19.42;11.73;;;6.80;99.90;;;;;;5037181;28;20127;-77
2022/01/14 05:53:40;;;;;;;20.15;13.63;;;6.90;99.90;;;;;;5037545;28;20474;-77
2022/01/14 05:56:05;;;;;;;19.70;12.77;;;6.90;99.90;;;;;;5036166;28;20052;-77
2022/01/14 05:58:31;;;;;;;21.25;12.75;;;6.90;99.90;;;;;;5037106;28;20052;-77
2022/01/14 06:00:56;;;;;;;19.75;12.93;;;6.90;99.90;;;;;;5036999;28;20049;-77
2022/01/14 06:03:22;;;;;;;17.30;12.27;;;6.90;99.90;;;;;;5036261;28;20613;-77
2022/01/14 06:05:48;;;;;;;22.23;12.80;;;6.90;99.90;;;;;;5037516;28;20049;-77
2022/01/14 06:08:14;;;;;;;19.25;12.52;;;6.90;99.90;;;;;;5038626;28;20056;-77
2022/01/14 06:10:39;;;;;;;17.75;12.52;;;7.00;99.90;;;;;;5037778;28;20049;-77
2022/01/14 06:13:05;;;;;;;23.10;12.38;;;7.00;99.90;;;;;;5036265;28;20052;-77
2022/01/14 06:15:31;;;;;;;22.17;13.23;;;7.00;99.90;;;;;;5036200;28;20140;-77
2022/01/14 06:17:57;;;;;;;18.20;11.55;;;7.00;99.90;;;;;;5036675;28;20210;-77
2022/01/14 06:20:23;;;;;;;16.00;12.40;;;7.00;99.90;;;;;;5036979;28;20060;-77
2022/01/14 06:22:49;;;;;;;25.17;13.02;;;7.00;99.90;;;;;;5037023;28;20052;-77
2022/01/14 06:25:14;;;;;;;18.58;11.70;;;7.00;99.90;;;;;;5038543;28;20076;-77
2022/01/14 06:27:40;;;;;;;17.98;11.80;;;7.00;99.90;;;;;;5038516;28;20080;-77
2022/01/14 06:30:07;;;;;;;22.48;12.48;;;7.00;99.90;;;;;;5036065;28;20084;-77
2022/01/14 06:32:35;;;;;;;18.50;12.95;;;7.00;99.90;;;;;;5037117;28;20489;-77
2022/01/14 06:35:01;;;;;;;18.80;12.05;;;7.00;99.90;;;;;;5038666;28;20048;-78
2022/01/14 06:37:27;;;;;;;19.08;12.27;;;7.00;99.90;;;;;;5036837;28;20589;-77
2022/01/14 06:39:54;;;;;;;20.80;11.88;;;7.00;99.90;;;;;;5038112;28;20134;-77
2022/01/14 06:42:20;;;;;;;22.67;13.57;;;7.00;99.90;;;;;;5037498;28;20053;-78
2022/01/14 06:44:46;;;;;;;21.05;13.20;;;7.10;99.90;;;;;;5037107;28;20416;-78
2022/01/14 06:47:11;;;;;;;18.73;12.32;;;7.10;99.90;;;;;;5038173;28;20040;-77
2022/01/14 06:49:37;;;;;;;20.67;12.25;;;7.10;99.90;;;;;;5038694;28;20071;-78
2022/01/14 06:52:02;;;;;;;19.23;12.35;;;7.10;99.90;;;;;;5038256;28;20143;-77
2022/01/14 06:54:28;;;;;;;18.85;11.43;;;7.10;99.90;;;;;;5036233;28;20048;-77
2022/01/14 06:56:54;;;;;;;23.15;12.20;;;7.10;99.90;;;;;;5036223;28;20140;-77
2022/01/14 06:59:19;;;;;;;21.77;12.35;;;7.10;99.90;;;;;;5037169;28;20764;-77
2022/01/14 07:01:45;;;;;;;25.55;12.93;;;7.10;99.90;;;;;;5036370;28;20052;-77
2022/01/14 07:04:11;;;;;;;20.05;11.85;;;7.10;99.90;;;;;;5037072;28;20048;-77
2022/01/14 07:06:36;;;;;;;16.85;11.55;;;7.10;99.90;;;;;;5038347;28;20056;-77
2022/01/14 07:09:02;;;;;;;20.33;13.60;;;7.10;99.90;;;;;;5036367;28;20037;-77
2022/01/14 07:11:35;;;;;;;17.48;11.00;;;7.10;99.90;;;;;;5035696;28;20543;-77
2022/01/14 07:14:00;;;;;;;16.77;11.32;;;7.10;99.90;;;;;;5036395;28;20056;-77
2022/01/14 07:16:26;;;;;;;21.08;9.75;;;6.80;99.90;;;;;;5040025;28;20068;-77
2022/01/14 07:18:51;;;;;;;21.88;10.85;;;7.10;99.90;;;;;;5040113;28;20048;-77
2022/01/14 07:21:17;;;;;;;16.90;10.82;;;7.10;99.90;;;;;;5042025;28;20060;-77
2022/01/14 07:23:43;;;;;;;16.90;10.88;;;7.10;99.90;;;;;;5042057;28;20048;-77
2022/01/14 07:26:08;;;;;;;19.08;11.15;;;7.10;99.90;;;;;;5040571;28;20060;-77
2022/01/14 07:28:34;;;;;;;20.02;11.77;;;7.10;99.90;;;;;;5040787;28;20143;-77
2022/01/14 07:30:59;;;;;;;14.93;10.75;;;7.20;99.90;;;;;;5041079;28;20416;-77
2022/01/14 07:33:25;;;;;;;16.25;10.55;;;7.10;99.90;;;;;;5040924;28;20960;-77
2022/01/14 07:35:50;;;;;;;18.67;11.13;;;6.90;99.90;;;;;;5039603;28;20530;-77
2022/01/14 07:38:16;;;;;;;14.95;11.18;;;7.10;99.90;;;;;;5039643;28;20048;-77
2022/01/14 07:40:41;;;;;;;15.68;11.55;;;7.20;99.90;;;;;;5040402;28;20155;-77
2022/01/14 07:43:08;;;;;;;16.60;11.20;;;7.10;99.90;;;;;;5039243;28;20618;-77
2022/01/14 07:45:33;;;;;;;16.75;10.05;;;7.20;99.90;;;;;;5039907;28;20053;-77
2022/01/14 07:47:59;;;;;;;16.15;10.27;;;7.20;99.90;;;;;;5040526;28;20377;-77
2022/01/14 07:50:24;;;;;;;19.98;10.60;;;7.20;99.90;;;;;;5039940;28;20045;-77
2022/01/14 07:52:50;;;;;;;17.77;9.45;;;7.20;99.90;;;;;;5041027;28;20124;-77
2022/01/14 07:55:15;;;;;;;16.35;10.05;;;7.20;99.90;;;;;;5039485;28;20044;-77
2022/01/14 07:57:41;;;;;;;14.10;9.25;;;7.20;99.90;;;;;;5037348;28;20049;-77
2022/01/14 08:00:08;;;;;;;16.50;10.02;;;7.30;99.90;;;;;;5037774;28;20049;-76
2022/01/14 08:02:33;;;;;;;19.45;10.63;;;7.30;99.90;;;;;;5037410;28;20033;-77
2022/01/14 08:04:59;;;;;;;15.43;8.75;;;8.10;99.90;;;;;;5036653;28;20060;-77
2022/01/14 08:07:28;;;;;;;18.52;9.90;;;7.30;99.90;;;;;;5038198;28;20851;-77
2022/01/14 08:09:54;;;;;;;15.63;9.27;;;7.30;99.90;;;;;;5033300;28;20056;-77
2022/01/14 08:12:19;;;;;;;18.33;11.00;;;7.30;99.90;;;;;;5036145;28;20083;-76
2022/01/14 08:14:45;;;;;;;18.95;9.57;;;7.30;99.90;;;;;;5035443;28;20155;-76
2022/01/14 08:17:12;;;;;;;16.17;10.10;;;7.30;99.90;;;;;;5037719;28;20484;-77
2022/01/14 08:19:38;;;;;;;17.55;10.20;;;7.30;99.90;;;;;;5036558;28;20067;-77
2022/01/14 08:22:05;;;;;;;15.13;9.18;;;7.30;99.90;;;;;;5034956;28;20040;-77
2022/01/14 08:24:32;;;;;;;16.88;7.70;;;7.40;99.90;;;;;;5036482;28;20057;-77
2022/01/14 08:26:58;;;;;;;13.10;9.70;;;7.40;99.90;;;;;;5035367;28;20049;-77
2022/01/14 08:29:24;;;;;;;15.32;9.05;;;7.40;99.90;;;;;;5035107;28;20537;-76
2022/01/14 08:31:49;;;;;;;13.32;9.20;;;7.40;99.90;;;;;;5036350;28;20230;-77
2022/01/14 08:34:15;;;;;;;12.50;8.27;;;7.40;99.90;;;;;;5036299;28;20061;-77
2022/01/14 08:36:41;;;;;;;10.77;8.05;;;7.40;99.90;;;;;;5035752;28;20045;-77
2022/01/14 08:39:06;;;;;;;14.15;9.00;;;7.40;99.90;;;;;;5037087;28;20098;-77
2022/01/14 08:41:32;;;;;;;17.85;9.02;;;7.50;99.90;;;;;;5069462;28;20044;-76
2022/01/14 08:43:59;;;;;;;13.05;8.15;;;7.50;99.90;;;;;;5035636;28;20063;-76
2022/01/14 08:46:26;;;;;;;14.55;7.70;;;7.50;99.90;;;;;;5069798;28;20587;-76
2022/01/14 08:48:51;;;;;;;14.43;8.90;;;7.50;99.90;;;;;;5035872;28;20487;-75
2022/01/14 08:51:18;;;;;;;13.95;8.77;;;7.60;99.90;;;;;;5030011;28;20129;-77
2022/01/14 08:53:44;;;;;;;18.33;7.22;;;7.60;99.90;;;;;;5029017;28;20167;-78
2022/01/14 08:56:09;;;;;;;17.35;7.95;;;7.60;99.90;;;;;;5032673;28;20041;-79
2022/01/14 08:58:35;;;;;;;11.50;7.97;;;7.60;99.90;;;;;;5030590;28;20135;-78
2022/01/14 09:01:01;;;;;;;16.88;8.93;;;7.70;99.90;;;;;;5034062;28;20049;-77
2022/01/14 09:03:27;;;;;;;14.90;8.10;;;7.70;99.90;;;;;;5034382;28;20045;-79
2022/01/14 09:05:53;;;;;;;24.15;6.97;;;7.70;99.90;;;;;;5034345;28;20058;-77
2022/01/14 09:08:18;;;;;;;12.05;7.13;;;7.70;99.90;;;;;;5034869;28;20640;-78
2022/01/14 09:10:44;;;;;;;16.50;8.90;;;7.80;99.90;;;;;;5035661;28;20045;-78
2022/01/14 09:13:10;;;;;;;11.80;6.18;;;7.80;99.90;;;;;;5035296;28;20064;-78
2022/01/14 09:15:36;;;;;;;9.95;5.80;;;7.80;99.90;;;;;;5037112;28;20785;-78
2022/01/14 09:18:03;;;;;;;13.23;7.72;;;7.90;99.90;;;;;;5035533;28;20080;-77
2022/01/14 09:20:28;;;;;;;19.00;6.78;;;7.90;99.90;;;;;;5039405;28;20049;-78
2022/01/14 09:22:57;;;;;;;14.48;5.93;;;7.90;99.90;;;;;;5039062;28;20090;-77
2022/01/14 09:25:23;;;;;;;14.02;7.40;;;8.00;99.90;;;;;;5037325;28;20144;-77
2022/01/14 09:27:51;;;;;;;8.65;5.35;;;8.00;99.90;;;;;;5039306;28;20056;-77
2022/01/14 09:30:21;;;;;;;8.13;5.65;;;8.00;99.90;;;;;;5038998;28;20080;-77
2022/01/14 09:32:47;;;;;;;12.13;5.78;;;8.10;99.90;;;;;;5037090;28;20222;-77
2022/01/14 09:35:13;;;;;;;11.32;5.72;;;8.10;99.90;;;;;;5037158;28;20052;-78
2022/01/14 09:37:41;;;;;;;16.40;5.60;;;8.10;99.90;;;;;;4686882;28;10000604;-78
2022/01/14 09:40:07;;;;;;;11.63;5.72;;;8.20;99.90;;;;;;5028445;28;20148;-75
2022/01/14 09:42:33;;;;;;;11.30;6.78;;;8.20;99.90;;;;;;5033426;28;20853;-76
2022/01/14 09:44:59;;;;;;;7.53;5.32;;;8.20;99.90;;;;;;5028636;28;20087;-77
2022/01/14 09:47:25;;;;;;;16.38;4.70;;;8.20;99.90;;;;;;5061420;28;20076;-77
2022/01/14 09:49:50;;;;;;;9.90;4.70;;;8.20;99.90;;;;;;5029374;28;20898;-78
2022/01/14 09:52:17;;;;;;;8.05;6.07;;;8.30;99.90;;;;;;5060327;28;20862;-77
2022/01/14 09:54:44;;;;;;;11.45;4.70;;;8.30;99.90;;;;;;5064278;28;20044;-77
2022/01/14 09:57:11;;;;;;;5.57;4.57;;;8.30;99.90;;;;;;5031395;28;20160;-77
2022/01/14 09:59:38;;;;;;;7.82;4.88;;;8.40;99.90;;;;;;5064310;28;20113;-77
2022/01/14 10:02:04;;;;;;;13.15;5.35;;;8.40;99.90;;;;;;5063839;28;20076;-77
2022/01/14 10:04:30;;;;;;;9.55;4.90;;;8.40;99.90;;;;;;5064207;28;20116;-77
2022/01/14 10:06:58;;;;;;;7.13;4.93;;;8.40;99.90;;;;;;5031343;28;20103;-77
2022/01/14 10:09:36;;;;;;;8.20;3.72;;;8.50;99.90;;;;;;5064163;28;20132;-78
2022/01/14 10:12:20;;;;;;;10.95;4.32;;;8.60;99.90;;;;;;5033217;28;20075;-78
2022/01/14 10:14:58;;;;;;;9.38;4.60;;;8.60;99.90;;;;;;5062096;28;20728;-78
2022/01/14 10:17:25;;;;;;;6.15;3.80;;;8.60;99.90;;;;;;5033002;28;20044;-78
2022/01/14 10:19:52;;;;;;;11.02;4.40;;;8.60;99.90;;;;;;5032785;28;20041;-78
2022/01/14 10:22:19;;;;;;;6.47;4.32;;;8.60;99.90;;;;;;5063957;28;20095;-78
2022/01/14 10:24:53;;;;;;;5.72;3.58;;;8.60;99.90;;;;;;5064385;28;20059;-78
2022/01/14 10:27:29;;;;;;;11.43;4.18;;;8.60;99.90;;;;;;5061784;28;20076;-83
2022/01/14 10:30:08;;;;;;;9.50;4.13;;;8.50;99.90;;;;;;5062072;28;20045;-77
2022/01/14 10:32:34;;;;;;;10.98;4.05;;;8.60;99.90;;;;;;5065218;28;20567;-78
2022/01/14 10:35:09;;;;;;;11.98;3.95;;;8.60;99.90;;;;;;5031977;28;20102;-78
2022/01/14 10:37:36;;;;;;;8.07;4.15;;;8.70;99.90;;;;;;5030295;28;20106;-79
2022/01/14 10:40:05;;;;;;;8.57;4.22;;;9.20;99.90;;;;;;5031343;28;20124;-78
2022/01/14 10:42:34;;;;;;;8.40;3.90;;;8.60;99.90;;;;;;5063894;28;20752;-78
2022/01/14 10:45:19;;;;;;;4.32;3.67;;;8.70;99.90;;;;;;5032797;28;20053;-78
2022/01/14 10:48:06;;;;;;;6.75;3.67;;;8.60;99.90;;;;;;5029875;28;20048;-78
2022/01/14 10:50:39;;;;;;;10.27;4.00;;;8.70;99.90;;;;;;5031201;28;20110;-78
2022/01/14 10:53:10;;;;;;;8.50;3.67;;;8.60;99.90;;;;;;5064137;28;20041;-78
2022/01/14 10:55:51;;;;;;;11.73;4.35;;;8.60;99.90;;;;;;5064435;28;20079;-79
2022/01/14 10:58:25;;;;;;;7.32;3.42;;;8.60;99.90;;;;;;5019591;28;20479;-78
2022/01/14 11:00:59;;;;;;;12.73;5.32;;;8.60;99.90;;;;;;5064391;28;20452;-79
2022/01/14 11:03:43;;;;;;;11.40;3.60;;;8.50;99.90;;;;;;5030364;28;20052;-79
2022/01/14 11:06:25;;;;;;;8.27;3.80;;;8.50;99.90;;;;;;5029385;28;20044;-79
2022/01/14 11:09:00;;;;;;;4.47;3.25;;;8.60;99.90;;;;;;5062844;28;20056;-78
2022/01/14 11:11:28;;;;;;;3.33;2.50;;;8.50;99.90;;;;;;5031728;28;20049;-78
2022/01/14 11:13:53;;;;;;;8.95;3.42;;;8.50;99.90;;;;;;5063948;28;20264;-78
2022/01/14 11:16:19;;;;;;;6.45;3.38;;;8.50;99.90;;;;;;5064145;28;20126;-78
2022/01/14 11:18:46;;;;;;;6.43;2.45;;;8.50;99.90;;;;;;5031579;28;20072;-79
2022/01/14 11:23:56;;;;;;;7.40;3.47;;;8.50;99.90;;;;;;5031978;28;20215;-78
2022/01/14 11:26:23;;;;;;;10.30;3.35;;;8.50;99.90;;;;;;5031172;28;20045;-79
2022/01/14 11:28:49;;;;;;;9.80;3.40;;;8.50;99.90;;;;;;5063474;28;20058;-79
2022/01/14 11:31:44;;;;;;;6.32;2.95;;;8.50;99.90;;;;;;5030408;28;20098;-78
2022/01/14 11:34:29;;;;;;;3.88;2.83;;;8.60;99.90;;;;;;5029798;28;20127;-78
2022/01/14 11:36:59;;;;;;;6.68;3.33;;;8.60;99.90;;;;;;5064414;28;20050;-78
2022/01/14 11:39:31;;;;;;;6.32;3.03;;;8.60;99.90;;;;;;5031367;28;20593;-79
2022/01/14 11:42:09;;;;;;;8.52;3.45;;;8.60;99.90;;;;;;5032935;28;20068;-79
2022/01/14 11:44:54;;;;;;;10.13;3.63;;;8.60;99.90;;;;;;5035617;28;20055;-80
2022/01/14 11:47:36;;;;;;;6.47;3.35;;;8.60;99.90;;;;;;5066979;28;20195;-80
2022/01/14 11:50:03;;;;;;;8.73;3.40;;;8.60;99.90;;;;;;5036438;28;20060;-80
2022/01/14 11:52:40;;;;;;;8.75;3.97;;;8.60;99.90;;;;;;5068581;28;20053;-80
2022/01/14 11:55:14;;;;;;;8.07;3.83;;;8.60;99.90;;;;;;5036352;28;20114;-80
2022/01/14 11:57:46;;;;;;;10.18;4.18;;;8.70;99.90;;;;;;5035485;28;20959;-80
2022/01/14 12:00:30;;;;;;;12.32;4.47;;;8.70;99.90;;;;;;5035093;28;20098;-80
2022/01/14 12:03:13;;;;;;;7.55;3.20;;;8.70;99.90;;;;;;5035249;28;21086;-80
2022/01/14 12:05:50;;;;;;;6.97;3.30;;;8.70;99.90;;;;;;5035853;28;20053;-80
2022/01/14 12:08:18;;;;;;;6.88;3.35;;;8.70;99.90;;;;;;5034442;28;20061;-80
2022/01/14 12:10:56;;;;;;;7.07;3.17;;;8.80;99.90;;;;;;5035939;28;20131;-80
2022/01/14 12:13:49;;;;;;;6.88;3.72;;;8.80;99.90;;;;;;5036085;28;20075;-80
2022/01/14 12:18:57;;;;;;;7.45;3.47;;;8.80;99.90;;;;;;5037452;28;20060;-80
2022/01/14 12:21:44;;;;;;;11.60;3.63;;;8.80;99.90;;;;;;5035599;28;20580;-79
2022/01/14 12:24:30;;;;;;;13.80;3.78;;;8.80;99.90;;;;;;5035317;28;20053;-80
2022/01/14 12:27:03;;;;;;;14.52;4.28;;;8.80;99.90;;;;;;5034907;28;20093;-80
2022/01/14 12:29:44;;;;;;;6.30;3.67;;;8.80;99.90;;;;;;5035457;28;20092;-81
2022/01/14 12:32:20;;;;;;;8.75;4.13;;;8.80;99.90;;;;;;5037916;28;20715;-80
2022/01/14 12:34:48;;;;;;;12.00;5.32;;;8.80;99.90;;;;;;5035653;28;20451;-80
2022/01/14 12:37:28;;;;;;;7.68;3.60;;;8.70;99.90;;;;;;5036051;28;20041;-78
2022/01/14 12:39:55;;;;;;;8.85;4.32;;;8.80;99.90;;;;;;5035747;28;20049;-79
2022/01/14 12:42:23;;;;;;;5.60;3.55;;;8.50;99.90;;;;;;5034874;28;20140;-79
2022/01/14 12:44:53;;;;;;;8.55;3.45;;;8.80;99.90;;;;;;5037406;28;20117;-79
2022/01/14 12:47:39;;;;;;;5.53;3.30;;;8.70;99.90;;;;;;5036926;28;20049;-79
2022/01/14 12:50:09;;;;;;;7.95;4.53;;;8.70;99.90;;;;;;5037408;28;20522;-80
2022/01/14 12:52:49;;;;;;;11.52;4.70;;;8.80;99.90;;;;;;5034023;28;20087;-80
2022/01/14 12:55:15;;;;;;;8.75;4.18;;;8.80;99.90;;;;;;5066435;28;20424;-80
2022/01/14 12:57:41;;;;;;;12.18;4.40;;;8.70;99.90;;;;;;5034026;28;20064;-79
2022/01/14 13:00:09;;;;;;;9.93;4.28;;;8.70;99.90;;;;;;5032238;28;20048;-78
2022/01/14 13:02:35;;;;;;;7.47;4.15;;;8.70;99.90;;;;;;5035447;28;20041;-80
2022/01/14 13:05:16;;;;;;;9.48;4.45;;;8.70;99.90;;;;;;5066294;28;20040;-79
2022/01/14 13:07:43;;;;;;;5.55;4.65;;;8.70;99.90;;;;;;5034903;28;20056;-80
2022/01/14 13:10:11;;;;;;;7.25;3.38;;;8.70;99.90;;;;;;5035186;28;20037;-78
2022/01/14 13:12:42;;;;;;;7.00;3.67;;;8.70;99.90;;;;;;5036170;28;20073;-80
2022/01/14 13:15:12;;;;;;;8.32;4.10;;;8.70;99.90;;;;;;5036092;28;20052;-80
2022/01/14 13:17:43;;;;;;;10.20;4.65;;;8.70;99.90;;;;;;5035036;28;20063;-80
2022/01/14 13:20:13;;;;;;;16.70;5.15;;;8.70;99.90;;;;;;5036390;28;20155;-80
2022/01/14 13:22:39;;;;;;;7.20;4.40;;;8.70;99.90;;;;;;5037101;28;20219;-79